sensor_id;sensor_type;location;lat;lon;timestamp;pressure;altitude;pressure_sealevel;temperature;humidity
3440;BME280;1733;42.286;22.690;2023-07-24T00:01:49;95875.28;;;19.51;93.55
3440;BME280;1733;42.286;22.690;2023-07-24T00:04:16;95864.47;;;19.43;94.47
3440;BME280;1733;42.286;22.690;2023-07-24T00:06:43;95865.88;;;19.35;94.40
3440;BME280;1733;42.286;22.690;2023-07-24T00:09:11;95862.25;;;19.26;96.69
3440;BME280;1733;42.286;22.690;2023-07-24T00:11:38;95855.94;;;19.17;97.56
3440;BME280;1733;42.286;22.690;2023-07-24T00:14:05;95850.66;;;19.11;100.00
3440;BME280;1733;42.286;22.690;2023-07-24T00:16:32;95862.75;;;19.04;100.00
3440;BME280;1733;42.286;22.690;2023-07-24T00:18:59;95862.00;;;18.98;100.00
3440;BME280;1733;42.286;22.690;2023-07-24T00:21:26;95859.09;;;18.95;100.00
3440;BME280;1733;42.286;22.690;2023-07-24T00:23:53;95859.09;;;18.95;100.00
3440;BME280;1733;42.286;22.690;2023-07-24T00:26:21;95855.63;;;18.94;100.00
3440;BME280;1733;42.286;22.690;2023-07-24T00:28:48;95857.75;;;18.97;100.00
3440;BME280;1733;42.286;22.690;2023-07-24T00:31:14;95846.34;;;18.92;100.00
3440;BME280;1733;42.286;22.690;2023-07-24T00:33:41;95857.50;;;18.94;100.00
3440;BME280;1733;42.286;22.690;2023-07-24T00:36:08;95860.44;;;18.92;100.00
3440;BME280;1733;42.286;22.690;2023-07-24T00:38:35;95858.28;;;18.94;100.00
3440;BME280;1733;42.286;22.690;2023-07-24T00:41:02;95846.00;;;18.98;100.00
3440;BME280;1733;42.286;22.690;2023-07-24T00:43:30;95848.97;;;18.97;100.00
3440;BME280;1733;42.286;22.690;2023-07-24T00:45:57;95856.72;;;18.93;100.00
3440;BME280;1733;42.286;22.690;2023-07-24T00:48:24;95845.81;;;18.90;100.00
3440;BME280;1733;42.286;22.690;2023-07-24T00:50:51;95861.50;;;18.96;100.00
3440;BME280;1733;42.286;22.690;2023-07-24T00:53:19;95855.06;;;18.97;100.00
3440;BME280;1733;42.286;22.690;2023-07-24T00:55:47;95854.53;;;18.95;100.00
3440;BME280;1733;42.286;22.690;2023-07-24T00:58:16;95852.97;;;18.94;100.00
3440;BME280;1733;42.286;22.690;2023-07-24T01:00:44;95849.25;;;18.90;100.00
3440;BME280;1733;42.286;22.690;2023-07-24T01:03:12;95847.19;;;18.87;100.00
3440;BME280;1733;42.286;22.690;2023-07-24T01:05:39;95845.06;;;18.84;100.00
3440;BME280;1733;42.286;22.690;2023-07-24T01:08:07;95841.88;;;18.82;100.00
3440;BME280;1733;42.286;22.690;2023-07-24T01:10:34;95839.19;;;18.87;100.00
3440;BME280;1733;42.286;22.690;2023-07-24T01:13:06;95847.91;;;18.93;96.88
3440;BME280;1733;42.286;22.690;2023-07-24T01:15:38;95839.22;;;18.82;96.45
3440;BME280;1733;42.286;22.690;2023-07-24T01:18:09;95847.59;;;18.70;96.81
3440;BME280;1733;42.286;22.690;2023-07-24T01:20:37;95838.84;;;18.59;97.78
3440;BME280;1733;42.286;22.690;2023-07-24T01:23:14;95848.28;;;18.47;99.85
3440;BME280;1733;42.286;22.690;2023-07-24T01:26:06;95837.94;;;18.45;100.00
3440;BME280;1733;42.286;22.690;2023-07-24T01:28:33;95836.06;;;18.46;100.00
3440;BME280;1733;42.286;22.690;2023-07-24T01:31:00;95827.63;;;18.33;100.00
3440;BME280;1733;42.286;22.690;2023-07-24T01:33:27;95833.03;;;18.23;100.00
3440;BME280;1733;42.286;22.690;2023-07-24T01:35:55;95838.09;;;18.20;100.00
3440;BME280;1733;42.286;22.690;2023-07-24T01:38:24;95832.81;;;18.15;100.00
3440;BME280;1733;42.286;22.690;2023-07-24T01:40:52;95849.34;;;18.12;100.00
3440;BME280;1733;42.286;22.690;2023-07-24T01:43:21;95846.69;;;18.12;100.00
3440;BME280;1733;42.286;22.690;2023-07-24T01:45:48;95847.22;;;18.08;100.00
3440;BME280;1733;42.286;22.690;2023-07-24T01:48:15;95846.41;;;18.08;100.00
3440;BME280;1733;42.286;22.690;2023-07-24T01:50:42;95847.78;;;18.05;100.00
3440;BME280;1733;42.286;22.690;2023-07-24T01:53:09;95845.63;;;18.07;100.00
3440;BME280;1733;42.286;22.690;2023-07-24T01:55:36;95840.59;;;18.06;100.00
3440;BME280;1733;42.286;22.690;2023-07-24T01:58:04;95840.59;;;18.06;100.00
3440;BME280;1733;42.286;22.690;2023-07-24T02:00:32;95837.41;;;18.04;100.00
3440;BME280;1733;42.286;22.690;2023-07-24T02:02:59;95840.31;;;18.07;100.00
3440;BME280;1733;42.286;22.690;2023-07-24T02:05:26;95844.34;;;18.05;100.00
3440;BME280;1733;42.286;22.690;2023-07-24T02:07:53;95844.03;;;18.06;100.00
3440;BME280;1733;42.286;22.690;2023-07-24T02:10:20;95842.22;;;18.02;100.00
3440;BME280;1733;42.286;22.690;2023-07-24T02:12:47;95844.09;;;17.96;100.00
3440;BME280;1733;42.286;22.690;2023-07-24T02:15:14;95843.09;;;17.92;100.00
3440;BME280;1733;42.286;22.690;2023-07-24T02:17:42;95830.31;;;17.89;100.00
3440;BME280;1733;42.286;22.690;2023-07-24T02:20:09;95830.34;;;17.84;100.00
3440;BME280;1733;42.286;22.690;2023-07-24T02:22:36;95836.00;;;17.72;100.00
3440;BME280;1733;42.286;22.690;2023-07-24T02:25:04;95828.28;;;17.66;100.00
3440;BME280;1733;42.286;22.690;2023-07-24T02:27:32;95836.25;;;17.66;100.00
3440;BME280;1733;42.286;22.690;2023-07-24T02:30:00;95834.97;;;17.63;100.00
3440;BME280;1733;42.286;22.690;2023-07-24T02:32:27;95831.22;;;17.64;100.00
3440;BME280;1733;42.286;22.690;2023-07-24T02:34:55;95838.72;;;17.52;100.00
3440;BME280;1733;42.286;22.690;2023-07-24T02:37:22;95835.50;;;17.55;100.00
3440;BME280;1733;42.286;22.690;2023-07-24T02:39:49;95836.56;;;17.59;100.00
3440;BME280;1733;42.286;22.690;2023-07-24T02:42:16;95838.50;;;17.38;100.00
3440;BME280;1733;42.286;22.690;2023-07-24T02:44:43;95839.59;;;17.32;100.00
3440;BME280;1733;42.286;22.690;2023-07-24T02:47:10;95838.75;;;17.42;100.00
3440;BME280;1733;42.286;22.690;2023-07-24T02:49:37;95844.34;;;17.45;100.00
3440;BME280;1733;42.286;22.690;2023-07-24T02:52:06;95839.28;;;17.39;100.00
3440;BME280;1733;42.286;22.690;2023-07-24T02:54:32;95844.06;;;17.42;100.00
3440;BME280;1733;42.286;22.690;2023-07-24T02:56:59;95842.22;;;17.37;100.00
3440;BME280;1733;42.286;22.690;2023-07-24T02:59:26;95847.84;;;17.31;100.00
3440;BME280;1733;42.286;22.690;2023-07-24T03:01:54;95852.34;;;17.30;100.00
3440;BME280;1733;42.286;22.690;2023-07-24T03:04:21;95853.88;;;17.51;100.00
3440;BME280;1733;42.286;22.690;2023-07-24T03:06:48;95842.22;;;17.42;100.00
3440;BME280;1733;42.286;22.690;2023-07-24T03:09:16;95844.59;;;17.39;100.00
3440;BME280;1733;42.286;22.690;2023-07-24T03:11:44;95848.13;;;17.29;100.00
3440;BME280;1733;42.286;22.690;2023-07-24T03:14:11;95851.84;;;17.23;100.00
3440;BME280;1733;42.286;22.690;2023-07-24T03:16:38;95852.88;;;17.27;100.00
3440;BME280;1733;42.286;22.690;2023-07-24T03:19:05;95851.59;;;17.24;100.00
3440;BME280;1733;42.286;22.690;2023-07-24T03:21:32;95848.41;;;17.17;100.00
3440;BME280;1733;42.286;22.690;2023-07-24T03:23:59;95843.91;;;17.18;100.00
3440;BME280;1733;42.286;22.690;2023-07-24T03:26:27;95844.94;;;17.22;100.00
3440;BME280;1733;42.286;22.690;2023-07-24T03:28:54;95843.34;;;17.21;100.00
3440;BME280;1733;42.286;22.690;2023-07-24T03:31:20;95837.22;;;17.25;100.00
3440;BME280;1733;42.286;22.690;2023-07-24T03:33:47;95841.47;;;17.26;100.00
3440;BME280;1733;42.286;22.690;2023-07-24T03:36:14;95839.88;;;17.31;100.00
3440;BME280;1733;42.286;22.690;2023-07-24T03:38:41;95841.16;;;17.33;100.00
3440;BME280;1733;42.286;22.690;2023-07-24T03:41:08;95845.97;;;17.36;100.00
3440;BME280;1733;42.286;22.690;2023-07-24T03:43:36;95845.16;;;17.41;100.00
3440;BME280;1733;42.286;22.690;2023-07-24T03:46:03;95845.66;;;17.43;100.00
3440;BME280;1733;42.286;22.690;2023-07-24T03:48:30;95856.88;;;17.29;100.00
3440;BME280;1733;42.286;22.690;2023-07-24T03:51:00;95837.50;;;17.24;100.00
3440;BME280;1733;42.286;22.690;2023-07-24T03:53:27;95850.50;;;17.31;100.00
3440;BME280;1733;42.286;22.690;2023-07-24T03:55:54;95843.31;;;17.36;100.00
3440;BME280;1733;42.286;22.690;2023-07-24T03:58:21;95847.53;;;17.42;100.00
3440;BME280;1733;42.286;22.690;2023-07-24T04:00:49;95847.22;;;17.54;100.00
3440;BME280;1733;42.286;22.690;2023-07-24T04:03:16;95851.16;;;17.62;100.00
3440;BME280;1733;42.286;22.690;2023-07-24T04:05:43;95856.47;;;17.67;100.00
3440;BME280;1733;42.286;22.690;2023-07-24T04:08:10;95853.53;;;17.68;100.00
3440;BME280;1733;42.286;22.690;2023-07-24T04:10:37;95856.44;;;17.77;100.00
3440;BME280;1733;42.286;22.690;2023-07-24T04:13:04;95862.25;;;17.84;100.00
3440;BME280;1733;42.286;22.690;2023-07-24T04:15:31;95866.22;;;17.92;100.00
3440;BME280;1733;42.286;22.690;2023-07-24T04:17:59;95869.59;;;18.02;100.00
3440;BME280;1733;42.286;22.690;2023-07-24T04:20:26;95859.75;;;18.03;100.00
3440;BME280;1733;42.286;22.690;2023-07-24T04:22:53;95859.16;;;18.16;100.00
3440;BME280;1733;42.286;22.690;2023-07-24T04:25:20;95868.13;;;18.25;100.00
3440;BME280;1733;42.286;22.690;2023-07-24T04:27:47;95855.72;;;18.16;100.00
3440;BME280;1733;42.286;22.690;2023-07-24T04:30:14;95862.78;;;18.30;100.00
3440;BME280;1733;42.286;22.690;2023-07-24T04:32:42;95864.59;;;18.40;100.00
3440;BME280;1733;42.286;22.690;2023-07-24T04:35:10;95870.06;;;18.54;100.00
3440;BME280;1733;42.286;22.690;2023-07-24T04:37:37;95869.69;;;18.71;100.00
3440;BME280;1733;42.286;22.690;2023-07-24T04:40:05;95865.88;;;18.82;100.00
3440;BME280;1733;42.286;22.690;2023-07-24T04:42:31;95867.38;;;18.93;100.00
3440;BME280;1733;42.286;22.690;2023-07-24T04:44:58;95865.78;;;18.92;100.00
3440;BME280;1733;42.286;22.690;2023-07-24T04:47:25;95855.91;;;18.93;100.00
3440;BME280;1733;42.286;22.690;2023-07-24T04:49:52;95863.41;;;18.91;100.00
3440;BME280;1733;42.286;22.690;2023-07-24T04:52:22;95869.75;;;18.95;100.00
3440;BME280;1733;42.286;22.690;2023-07-24T04:54:49;95866.47;;;19.03;100.00
3440;BME280;1733;42.286;22.690;2023-07-24T04:57:15;95870.63;;;19.14;100.00
3440;BME280;1733;42.286;22.690;2023-07-24T04:59:42;95867.00;;;19.29;100.00
3440;BME280;1733;42.286;22.690;2023-07-24T05:02:09;95867.63;;;19.45;100.00
3440;BME280;1733;42.286;22.690;2023-07-24T05:04:36;95865.88;;;19.59;100.00
3440;BME280;1733;42.286;22.690;2023-07-24T05:07:03;95867.88;;;19.72;99.46
3440;BME280;1733;42.286;22.690;2023-07-24T05:09:31;95869.25;;;19.88;98.80
3440;BME280;1733;42.286;22.690;2023-07-24T05:11:58;95862.56;;;19.72;99.18
3440;BME280;1733;42.286;22.690;2023-07-24T05:14:25;95870.41;;;19.82;95.58
3440;BME280;1733;42.286;22.690;2023-07-24T05:16:51;95864.22;;;19.87;95.49
3440;BME280;1733;42.286;22.690;2023-07-24T05:19:18;95868.41;;;19.93;95.71
3440;BME280;1733;42.286;22.690;2023-07-24T05:21:45;95869.56;;;20.06;95.47
3440;BME280;1733;42.286;22.690;2023-07-24T05:24:12;95869.66;;;20.19;95.60
3440;BME280;1733;42.286;22.690;2023-07-24T05:26:40;95868.84;;;20.38;94.17
3440;BME280;1733;42.286;22.690;2023-07-24T05:29:07;95870.22;;;20.54;91.85
3440;BME280;1733;42.286;22.690;2023-07-24T05:31:34;95879.94;;;20.64;90.82
3440;BME280;1733;42.286;22.690;2023-07-24T05:34:01;95875.47;;;20.78;90.75
3440;BME280;1733;42.286;22.690;2023-07-24T05:36:29;95874.16;;;20.76;87.32
3440;BME280;1733;42.286;22.690;2023-07-24T05:38:56;95877.59;;;20.95;87.31
3440;BME280;1733;42.286;22.690;2023-07-24T05:41:23;95875.69;;;20.82;88.96
3440;BME280;1733;42.286;22.690;2023-07-24T05:43:51;95878.75;;;20.89;89.08
3440;BME280;1733;42.286;22.690;2023-07-24T05:46:19;95870.88;;;21.11;87.57
3440;BME280;1733;42.286;22.690;2023-07-24T05:48:45;95875.16;;;21.26;84.64
3440;BME280;1733;42.286;22.690;2023-07-24T05:51:12;95881.44;;;21.49;82.77
3440;BME280;1733;42.286;22.690;2023-07-24T05:53:39;95878.28;;;21.47;82.14
3440;BME280;1733;42.286;22.690;2023-07-24T05:56:06;95872.13;;;21.60;83.05
3440;BME280;1733;42.286;22.690;2023-07-24T05:58:33;95881.25;;;21.59;81.04
3440;BME280;1733;42.286;22.690;2023-07-24T06:01:01;95874.19;;;21.77;78.25
3440;BME280;1733;42.286;22.690;2023-07-24T06:03:28;95870.13;;;21.93;78.01
3440;BME280;1733;42.286;22.690;2023-07-24T06:05:56;95877.25;;;21.98;76.22
3440;BME280;1733;42.286;22.690;2023-07-24T06:08:23;95873.78;;;22.11;76.77
3440;BME280;1733;42.286;22.690;2023-07-24T06:10:50;95875.19;;;22.31;75.14
3440;BME280;1733;42.286;22.690;2023-07-24T06:13:18;95874.09;;;22.32;73.84
3440;BME280;1733;42.286;22.690;2023-07-24T06:15:46;95871.00;;;22.61;73.76
3440;BME280;1733;42.286;22.690;2023-07-24T06:18:15;95876.38;;;22.61;70.89
3440;BME280;1733;42.286;22.690;2023-07-24T06:20:42;95869.75;;;22.58;72.71
3440;BME280;1733;42.286;22.690;2023-07-24T06:23:09;95869.81;;;22.90;72.05
3440;BME280;1733;42.286;22.690;2023-07-24T06:25:35;95870.56;;;23.13;68.19
3440;BME280;1733;42.286;22.690;2023-07-24T06:28:03;95869.06;;;23.29;69.94
3440;BME280;1733;42.286;22.690;2023-07-24T06:30:29;95869.06;;;23.60;67.83
3440;BME280;1733;42.286;22.690;2023-07-24T06:32:56;95866.13;;;23.39;64.98
3440;BME280;1733;42.286;22.690;2023-07-24T06:35:25;95859.41;;;23.59;66.68
3440;BME280;1733;42.286;22.690;2023-07-24T06:37:52;95859.50;;;23.94;66.52
3440;BME280;1733;42.286;22.690;2023-07-24T06:40:18;95857.63;;;23.94;62.89
3440;BME280;1733;42.286;22.690;2023-07-24T06:42:45;95860.94;;;23.91;64.02
3440;BME280;1733;42.286;22.690;2023-07-24T06:45:12;95846.25;;;24.23;64.81
3440;BME280;1733;42.286;22.690;2023-07-24T06:47:39;95864.31;;;24.40;59.19
3440;BME280;1733;42.286;22.690;2023-07-24T06:50:07;95865.44;;;24.48;60.11
3440;BME280;1733;42.286;22.690;2023-07-24T06:52:35;95855.94;;;24.67;58.20
3440;BME280;1733;42.286;22.690;2023-07-24T06:55:03;95845.34;;;24.71;58.41
3440;BME280;1733;42.286;22.690;2023-07-24T06:57:30;95850.97;;;24.95;57.52
3440;BME280;1733;42.286;22.690;2023-07-24T06:59:57;95852.16;;;25.33;56.86
3440;BME280;1733;42.286;22.690;2023-07-24T07:02:24;95848.25;;;25.51;55.56
3440;BME280;1733;42.286;22.690;2023-07-24T07:04:51;95841.69;;;25.69;55.05
3440;BME280;1733;42.286;22.690;2023-07-24T07:07:18;95837.22;;;26.03;52.14
3440;BME280;1733;42.286;22.690;2023-07-24T07:09:46;95840.66;;;26.12;50.22
3440;BME280;1733;42.286;22.690;2023-07-24T07:12:13;95841.97;;;26.06;49.73
3440;BME280;1733;42.286;22.690;2023-07-24T07:14:40;95830.66;;;26.13;52.41
3440;BME280;1733;42.286;22.690;2023-07-24T07:17:07;95832.47;;;26.50;54.62
3440;BME280;1733;42.286;22.690;2023-07-24T07:19:34;95825.78;;;26.69;51.40
3440;BME280;1733;42.286;22.690;2023-07-24T07:22:01;95828.69;;;26.64;50.38
3440;BME280;1733;42.286;22.690;2023-07-24T07:24:28;95835.84;;;26.60;49.69
3440;BME280;1733;42.286;22.690;2023-07-24T07:26:56;95827.63;;;26.89;49.11
3440;BME280;1733;42.286;22.690;2023-07-24T07:29:23;95820.28;;;27.11;49.08
3440;BME280;1733;42.286;22.690;2023-07-24T07:31:50;95826.41;;;26.87;49.59
3440;BME280;1733;42.286;22.690;2023-07-24T07:34:17;95827.72;;;27.14;49.64
3440;BME280;1733;42.286;22.690;2023-07-24T07:36:44;95822.56;;;27.33;48.10
3440;BME280;1733;42.286;22.690;2023-07-24T07:39:11;95829.31;;;27.51;49.35
3440;BME280;1733;42.286;22.690;2023-07-24T07:41:38;95833.94;;;27.88;48.75
3440;BME280;1733;42.286;22.690;2023-07-24T07:44:07;95831.09;;;28.08;46.77
3440;BME280;1733;42.286;22.690;2023-07-24T07:46:33;95831.56;;;27.86;46.88
3440;BME280;1733;42.286;22.690;2023-07-24T07:49:00;95834.47;;;28.05;44.63
3440;BME280;1733;42.286;22.690;2023-07-24T07:51:27;95827.22;;;28.34;45.07
3440;BME280;1733;42.286;22.690;2023-07-24T07:53:54;95815.38;;;28.39;45.67
3440;BME280;1733;42.286;22.690;2023-07-24T07:56:21;95813.06;;;28.53;45.05
3440;BME280;1733;42.286;22.690;2023-07-24T07:58:48;95816.88;;;28.80;45.92
3440;BME280;1733;42.286;22.690;2023-07-24T08:01:16;95825.94;;;29.15;42.79
3440;BME280;1733;42.286;22.690;2023-07-24T08:03:43;95815.81;;;29.44;38.86
3440;BME280;1733;42.286;22.690;2023-07-24T08:06:10;95814.56;;;29.73;39.89
3440;BME280;1733;42.286;22.690;2023-07-24T08:08:40;95812.84;;;29.65;36.33
3440;BME280;1733;42.286;22.690;2023-07-24T08:11:08;95802.34;;;29.48;38.11
3440;BME280;1733;42.286;22.690;2023-07-24T08:13:34;95800.19;;;29.53;41.68
3440;BME280;1733;42.286;22.690;2023-07-24T08:16:01;95790.72;;;29.47;41.51
3440;BME280;1733;42.286;22.690;2023-07-24T08:18:30;95783.75;;;29.46;40.75
3440;BME280;1733;42.286;22.690;2023-07-24T08:20:57;95789.72;;;29.87;44.49
3440;BME280;1733;42.286;22.690;2023-07-24T08:23:24;95792.38;;;30.03;42.64
3440;BME280;1733;42.286;22.690;2023-07-24T08:25:51;95793.16;;;30.03;42.61
3440;BME280;1733;42.286;22.690;2023-07-24T08:28:18;95798.06;;;30.13;43.05
3440;BME280;1733;42.286;22.690;2023-07-24T08:30:45;95789.53;;;30.15;43.45
3440;BME280;1733;42.286;22.690;2023-07-24T08:33:13;95796.63;;;29.84;41.34
3440;BME280;1733;42.286;22.690;2023-07-24T08:35:41;95787.84;;;29.91;42.22
3440;BME280;1733;42.286;22.690;2023-07-24T08:38:08;95780.22;;;30.12;45.04
3440;BME280;1733;42.286;22.690;2023-07-24T08:40:35;95776.88;;;30.38;44.86
3440;BME280;1733;42.286;22.690;2023-07-24T08:43:02;95773.84;;;30.43;41.48
3440;BME280;1733;42.286;22.690;2023-07-24T08:45:29;95771.66;;;30.30;42.00
3440;BME280;1733;42.286;22.690;2023-07-24T08:47:58;95769.78;;;30.53;42.29
3440;BME280;1733;42.286;22.690;2023-07-24T08:50:26;95772.19;;;30.58;41.50
3440;BME280;1733;42.286;22.690;2023-07-24T08:52:56;95764.63;;;30.67;40.61
3440;BME280;1733;42.286;22.690;2023-07-24T08:55:24;95763.84;;;30.90;41.73
3440;BME280;1733;42.286;22.690;2023-07-24T08:57:52;95761.31;;;31.23;42.90
3440;BME280;1733;42.286;22.690;2023-07-24T09:00:19;95761.59;;;31.38;42.76
3440;BME280;1733;42.286;22.690;2023-07-24T09:02:46;95752.84;;;31.78;41.70
3440;BME280;1733;42.286;22.690;2023-07-24T09:05:13;95752.00;;;31.74;38.73
3440;BME280;1733;42.286;22.690;2023-07-24T09:07:42;95748.25;;;31.82;40.14
3440;BME280;1733;42.286;22.690;2023-07-24T09:10:11;95753.34;;;31.84;40.31
3440;BME280;1733;42.286;22.690;2023-07-24T09:12:38;95744.53;;;31.94;41.27
3440;BME280;1733;42.286;22.690;2023-07-24T09:15:06;95740.50;;;32.14;41.97
3440;BME280;1733;42.286;22.690;2023-07-24T09:17:33;95740.81;;;32.39;39.71
3440;BME280;1733;42.286;22.690;2023-07-24T09:20:01;95738.59;;;32.48;44.23
3440;BME280;1733;42.286;22.690;2023-07-24T09:22:29;95738.34;;;32.64;41.74
3440;BME280;1733;42.286;22.690;2023-07-24T09:24:57;95729.06;;;32.69;40.12
3440;BME280;1733;42.286;22.690;2023-07-24T09:27:28;95731.66;;;32.54;40.55
3440;BME280;1733;42.286;22.690;2023-07-24T09:29:55;95723.59;;;32.65;41.81
3440;BME280;1733;42.286;22.690;2023-07-24T09:32:23;95725.44;;;32.95;42.11
3440;BME280;1733;42.286;22.690;2023-07-24T09:34:51;95722.53;;;33.21;40.02
3440;BME280;1733;42.286;22.690;2023-07-24T09:37:24;95719.59;;;33.41;42.27
3440;BME280;1733;42.286;22.690;2023-07-24T09:39:52;95716.50;;;33.42;40.26
3440;BME280;1733;42.286;22.690;2023-07-24T09:42:28;95708.72;;;33.48;40.28
3440;BME280;1733;42.286;22.690;2023-07-24T09:44:55;95708.38;;;33.56;39.63
3440;BME280;1733;42.286;22.690;2023-07-24T09:47:22;95698.03;;;33.87;40.82
3440;BME280;1733;42.286;22.690;2023-07-24T09:49:50;95696.22;;;34.20;39.76
3440;BME280;1733;42.286;22.690;2023-07-24T09:52:18;95695.09;;;34.38;38.68
3440;BME280;1733;42.286;22.690;2023-07-24T09:54:52;95692.84;;;34.69;36.93
3440;BME280;1733;42.286;22.690;2023-07-24T09:57:21;95693.22;;;34.64;38.34
3440;BME280;1733;42.286;22.690;2023-07-24T09:59:51;95678.81;;;34.74;37.40
3440;BME280;1733;42.286;22.690;2023-07-24T10:02:19;95686.66;;;35.04;37.62
3440;BME280;1733;42.286;22.690;2023-07-24T10:04:46;95676.88;;;35.14;38.78
3440;BME280;1733;42.286;22.690;2023-07-24T10:07:14;95672.56;;;35.24;36.54
3440;BME280;1733;42.286;22.690;2023-07-24T10:09:42;95683.06;;;35.54;38.01
3440;BME280;1733;42.286;22.690;2023-07-24T10:12:10;95670.63;;;35.21;36.83
3440;BME280;1733;42.286;22.690;2023-07-24T10:14:37;95670.94;;;35.58;37.29
3440;BME280;1733;42.286;22.690;2023-07-24T10:17:06;95667.06;;;35.41;36.81
3440;BME280;1733;42.286;22.690;2023-07-24T10:19:36;95659.31;;;35.04;35.96
3440;BME280;1733;42.286;22.690;2023-07-24T10:22:06;95648.38;;;34.93;38.83
3440;BME280;1733;42.286;22.690;2023-07-24T10:24:33;95650.72;;;35.02;36.90
3440;BME280;1733;42.286;22.690;2023-07-24T10:27:00;95645.22;;;35.24;37.49
3440;BME280;1733;42.286;22.690;2023-07-24T10:29:29;95654.50;;;35.69;37.13
3440;BME280;1733;42.286;22.690;2023-07-24T10:32:00;95657.94;;;35.98;38.36
3440;BME280;1733;42.286;22.690;2023-07-24T10:34:37;95640.31;;;35.99;35.96
3440;BME280;1733;42.286;22.690;2023-07-24T10:37:07;95645.84;;;35.85;35.23
3440;BME280;1733;42.286;22.690;2023-07-24T10:39:39;95648.28;;;35.58;35.10
3440;BME280;1733;42.286;22.690;2023-07-24T10:42:08;95641.97;;;35.71;38.71
3440;BME280;1733;42.286;22.690;2023-07-24T10:44:35;95627.88;;;35.84;37.01
3440;BME280;1733;42.286;22.690;2023-07-24T10:47:03;95622.25;;;36.19;37.44
3440;BME280;1733;42.286;22.690;2023-07-24T10:49:30;95617.13;;;36.18;35.80
3440;BME280;1733;42.286;22.690;2023-07-24T10:51:59;95613.47;;;36.46;36.27
3440;BME280;1733;42.286;22.690;2023-07-24T10:54:26;95610.00;;;36.90;36.80
3440;BME280;1733;42.286;22.690;2023-07-24T10:56:58;95608.53;;;37.20;33.79
3440;BME280;1733;42.286;22.690;2023-07-24T10:59:36;95617.47;;;37.27;33.22
3440;BME280;1733;42.286;22.690;2023-07-24T11:02:03;95623.44;;;37.19;31.65
3440;BME280;1733;42.286;22.690;2023-07-24T11:04:30;95615.00;;;36.99;29.15
3440;BME280;1733;42.286;22.690;2023-07-24T11:07:00;95616.63;;;36.41;30.29
3440;BME280;1733;42.286;22.690;2023-07-24T11:09:34;95608.25;;;36.07;31.64
3440;BME280;1733;42.286;22.690;2023-07-24T11:12:09;95614.19;;;35.84;31.65
3440;BME280;1733;42.286;22.690;2023-07-24T11:14:46;95606.34;;;35.89;31.55
3440;BME280;1733;42.286;22.690;2023-07-24T11:17:13;95598.31;;;35.50;31.04
3440;BME280;1733;42.286;22.690;2023-07-24T11:19:40;95595.47;;;35.75;32.53
3440;BME280;1733;42.286;22.690;2023-07-24T11:22:08;95595.94;;;35.49;31.72
3440;BME280;1733;42.286;22.690;2023-07-24T11:24:42;95585.28;;;35.76;32.14
3440;BME280;1733;42.286;22.690;2023-07-24T11:27:12;95589.97;;;35.75;32.17
3440;BME280;1733;42.286;22.690;2023-07-24T11:29:39;95573.84;;;35.98;31.93
3440;BME280;1733;42.286;22.690;2023-07-24T11:32:07;95571.53;;;36.53;32.45
3440;BME280;1733;42.286;22.690;2023-07-24T11:34:34;95581.88;;;36.83;30.57
3440;BME280;1733;42.286;22.690;2023-07-24T11:37:02;95575.50;;;36.96;30.13
3440;BME280;1733;42.286;22.690;2023-07-24T11:39:30;95565.84;;;37.19;29.94
3440;BME280;1733;42.286;22.690;2023-07-24T11:41:59;95571.00;;;37.13;30.56
3440;BME280;1733;42.286;22.690;2023-07-24T11:44:27;95580.22;;;36.92;29.96
3440;BME280;1733;42.286;22.690;2023-07-24T11:47:02;95554.09;;;36.29;30.64
3440;BME280;1733;42.286;22.690;2023-07-24T11:49:30;95565.34;;;36.48;30.06
3440;BME280;1733;42.286;22.690;2023-07-24T11:52:01;95553.72;;;36.30;30.41
3440;BME280;1733;42.286;22.690;2023-07-24T11:54:27;95544.78;;;36.19;30.13
3440;BME280;1733;42.286;22.690;2023-07-24T11:56:56;95536.47;;;36.30;30.59
3440;BME280;1733;42.286;22.690;2023-07-24T11:59:24;95544.72;;;36.26;29.86
3440;BME280;1733;42.286;22.690;2023-07-24T12:01:51;95549.53;;;36.11;31.29
3440;BME280;1733;42.286;22.690;2023-07-24T12:04:18;95537.63;;;36.36;31.38
3440;BME280;1733;42.286;22.690;2023-07-24T12:06:46;95533.84;;;36.19;31.66
3440;BME280;1733;42.286;22.690;2023-07-24T12:09:13;95546.44;;;36.61;30.72
3440;BME280;1733;42.286;22.690;2023-07-24T12:11:40;95534.63;;;36.19;30.33
3440;BME280;1733;42.286;22.690;2023-07-24T12:14:08;95526.97;;;36.48;30.45
3440;BME280;1733;42.286;22.690;2023-07-24T12:16:35;95532.19;;;36.29;30.13
3440;BME280;1733;42.286;22.690;2023-07-24T12:19:03;95539.31;;;36.19;30.64
3440;BME280;1733;42.286;22.690;2023-07-24T12:21:29;95519.47;;;36.04;29.86
3440;BME280;1733;42.286;22.690;2023-07-24T12:23:56;95527.34;;;36.50;30.47
3440;BME280;1733;42.286;22.690;2023-07-24T12:26:23;95523.75;;;36.98;29.69
3440;BME280;1733;42.286;22.690;2023-07-24T12:28:53;95518.59;;;37.04;30.07
3440;BME280;1733;42.286;22.690;2023-07-24T12:31:21;95514.00;;;37.62;29.46
3440;BME280;1733;42.286;22.690;2023-07-24T12:33:48;95518.66;;;37.00;30.67
3440;BME280;1733;42.286;22.690;2023-07-24T12:36:15;95518.94;;;36.68;30.69
3440;BME280;1733;42.286;22.690;2023-07-24T12:38:42;95514.66;;;36.67;30.74
3440;BME280;1733;42.286;22.690;2023-07-24T12:41:09;95506.59;;;36.94;31.30
3440;BME280;1733;42.286;22.690;2023-07-24T12:43:36;95514.53;;;37.19;30.69
3440;BME280;1733;42.286;22.690;2023-07-24T12:46:03;95507.41;;;37.56;30.71
3440;BME280;1733;42.286;22.690;2023-07-24T12:48:31;95512.38;;;37.34;30.26
3440;BME280;1733;42.286;22.690;2023-07-24T12:50:58;95509.22;;;37.39;30.09
3440;BME280;1733;42.286;22.690;2023-07-24T12:53:25;95514.47;;;37.88;30.04
3440;BME280;1733;42.286;22.690;2023-07-24T12:55:52;95509.84;;;37.50;30.64
3440;BME280;1733;42.286;22.690;2023-07-24T12:58:19;95502.38;;;37.20;30.14
3440;BME280;1733;42.286;22.690;2023-07-24T13:00:46;95506.47;;;37.70;30.02
3440;BME280;1733;42.286;22.690;2023-07-24T13:03:13;95501.16;;;37.55;29.81
3440;BME280;1733;42.286;22.690;2023-07-24T13:05:41;95492.56;;;37.84;29.07
3440;BME280;1733;42.286;22.690;2023-07-24T13:08:08;95495.25;;;37.88;28.65
3440;BME280;1733;42.286;22.690;2023-07-24T13:10:35;95493.56;;;37.67;29.84